首页
METAR-TAF:

METAR-TAF

机场 :

Khon Kaen, 泰国

纬度: 16-26N, 经度: 102-50E, 海拔: 165米

当前天气观测

该预报发布于42分钟前的12:00 UTC
风速2节,风向
温度 28°C
湿度 79%
气压 1006 hPa
能见度10公里或以上
少量云层高于3000英尺

METAR: VTUK 171200Z 18002KT 9999 FEW030 28/24 Q1006 NOSIG

时间: 19:42 (12:42 UTC)

预报

该预报发布于1小时和42分钟前的11:00 UTC
预报有效从17日的 12点(UTC)到 18日的 12点(UTC)
风速5节,风向西转西南
能見度: 9000
散云层高于3000英尺
短暂存在
从 18日的 06点(UTC)到 18日的 12点(UTC)
风速15节,风向多变
少量云层高于1800英尺, 积雨云.
多云层高于2500英尺
雷暴, 小雨,

TAF: VTUK 171100Z 1712/1812 24005KT 9000 SCT030 TEMPO 1806/1812 VRB15KT -TSRA FEW018CB BKN025

超过4000个机场的气象观测和天气预报(METAR&TAF报告)。

可查询的气象台以黄色和红色小点在地图上表示。

将鼠标移到小点上方,可查看气象台名称。

然后点击查看天气观测和预报。

如需切换地图:点击带黑十字的绿色按钮放大地图;点击带横线的绿色按钮缩小地图;或者点击绿色箭头查看邻近地区的地图。


METAR-TAF: